sensor_id;sensor_type;location;lat;lon;timestamp;P1;durP1;ratioP1;P2;durP2;ratioP2
53533;SDS011;39421;53.204;6.568;2023-04-25T00:00:05;18.05;;;3.63;;
53533;SDS011;39421;53.204;6.568;2023-04-25T00:02:32;20.20;;;4.03;;
53533;SDS011;39421;53.204;6.568;2023-04-25T00:05:00;15.48;;;4.20;;
53533;SDS011;39421;53.204;6.568;2023-04-25T00:07:26;17.60;;;3.95;;
53533;SDS011;39421;53.204;6.568;2023-04-25T00:09:53;16.42;;;4.00;;
53533;SDS011;39421;53.204;6.568;2023-04-25T00:12:19;16.73;;;4.20;;
53533;SDS011;39421;53.204;6.568;2023-04-25T00:14:46;18.03;;;4.13;;
53533;SDS011;39421;53.204;6.568;2023-04-25T00:17:14;19.30;;;3.97;;
53533;SDS011;39421;53.204;6.568;2023-04-25T00:19:41;20.80;;;4.17;;
53533;SDS011;39421;53.204;6.568;2023-04-25T00:22:10;22.88;;;4.30;;
53533;SDS011;39421;53.204;6.568;2023-04-25T00:24:36;17.13;;;3.72;;
53533;SDS011;39421;53.204;6.568;2023-04-25T00:27:03;19.23;;;4.07;;
53533;SDS011;39421;53.204;6.568;2023-04-25T00:29:29;19.02;;;4.00;;
53533;SDS011;39421;53.204;6.568;2023-04-25T00:31:55;18.55;;;4.60;;
53533;SDS011;39421;53.204;6.568;2023-04-25T00:34:21;17.43;;;4.27;;
53533;SDS011;39421;53.204;6.568;2023-04-25T00:36:47;17.70;;;4.00;;
53533;SDS011;39421;53.204;6.568;2023-04-25T00:39:13;14.25;;;3.40;;
53533;SDS011;39421;53.204;6.568;2023-04-25T00:41:40;17.13;;;3.25;;
53533;SDS011;39421;53.204;6.568;2023-04-25T00:44:08;13.43;;;3.22;;
53533;SDS011;39421;53.204;6.568;2023-04-25T00:46:36;14.00;;;3.20;;
53533;SDS011;39421;53.204;6.568;2023-04-25T00:49:02;12.97;;;2.97;;
53533;SDS011;39421;53.204;6.568;2023-04-25T00:51:29;15.07;;;3.33;;
53533;SDS011;39421;53.204;6.568;2023-04-25T00:53:55;14.00;;;3.13;;
53533;SDS011;39421;53.204;6.568;2023-04-25T00:56:22;13.10;;;2.80;;
53533;SDS011;39421;53.204;6.568;2023-04-25T00:58:48;14.82;;;2.88;;
53533;SDS011;39421;53.204;6.568;2023-04-25T01:01:15;16.17;;;3.30;;
53533;SDS011;39421;53.204;6.568;2023-04-25T01:03:42;15.88;;;2.97;;
53533;SDS011;39421;53.204;6.568;2023-04-25T01:06:10;13.97;;;2.70;;
53533;SDS011;39421;53.204;6.568;2023-04-25T01:08:37;17.15;;;2.85;;
53533;SDS011;39421;53.204;6.568;2023-04-25T01:11:03;16.90;;;2.97;;
53533;SDS011;39421;53.204;6.568;2023-04-25T01:13:30;17.15;;;2.95;;
53533;SDS011;39421;53.204;6.568;2023-04-25T01:15:57;9.90;;;2.70;;
53533;SDS011;39421;53.204;6.568;2023-04-25T01:18:23;12.87;;;2.70;;
53533;SDS011;39421;53.204;6.568;2023-04-25T01:20:52;13.07;;;2.58;;
53533;SDS011;39421;53.204;6.568;2023-04-25T01:23:22;13.43;;;2.60;;
53533;SDS011;39421;53.204;6.568;2023-04-25T01:25:49;12.43;;;2.65;;
53533;SDS011;39421;53.204;6.568;2023-04-25T01:28:15;12.77;;;2.40;;
53533;SDS011;39421;53.204;6.568;2023-04-25T01:30:41;13.10;;;2.67;;
53533;SDS011;39421;53.204;6.568;2023-04-25T01:33:08;11.45;;;2.30;;
53533;SDS011;39421;53.204;6.568;2023-04-25T01:35:34;14.90;;;2.80;;
53533;SDS011;39421;53.204;6.568;2023-04-25T01:38:01;11.02;;;2.35;;
53533;SDS011;39421;53.204;6.568;2023-04-25T01:40:27;12.77;;;2.33;;
53533;SDS011;39421;53.204;6.568;2023-04-25T01:42:53;13.80;;;2.90;;
53533;SDS011;39421;53.204;6.568;2023-04-25T01:45:20;13.48;;;2.70;;
53533;SDS011;39421;53.204;6.568;2023-04-25T01:47:46;14.57;;;2.45;;
53533;SDS011;39421;53.204;6.568;2023-04-25T01:50:14;16.90;;;2.88;;
53533;SDS011;39421;53.204;6.568;2023-04-25T01:52:41;16.13;;;2.70;;
53533;SDS011;39421;53.204;6.568;2023-04-25T01:55:07;14.75;;;2.75;;
53533;SDS011;39421;53.204;6.568;2023-04-25T01:57:33;14.60;;;2.60;;
53533;SDS011;39421;53.204;6.568;2023-04-25T02:00:00;15.53;;;2.63;;
53533;SDS011;39421;53.204;6.568;2023-04-25T02:02:27;14.55;;;3.13;;
53533;SDS011;39421;53.204;6.568;2023-04-25T02:04:53;15.25;;;2.83;;
53533;SDS011;39421;53.204;6.568;2023-04-25T02:07:21;14.77;;;3.00;;
53533;SDS011;39421;53.204;6.568;2023-04-25T02:09:47;16.10;;;3.22;;
53533;SDS011;39421;53.204;6.568;2023-04-25T02:12:13;13.75;;;2.70;;
53533;SDS011;39421;53.204;6.568;2023-04-25T02:14:39;13.73;;;2.50;;
53533;SDS011;39421;53.204;6.568;2023-04-25T02:17:05;16.05;;;3.15;;
53533;SDS011;39421;53.204;6.568;2023-04-25T02:19:32;13.52;;;3.17;;
53533;SDS011;39421;53.204;6.568;2023-04-25T02:21:58;15.85;;;2.70;;
53533;SDS011;39421;53.204;6.568;2023-04-25T02:24:24;13.57;;;3.03;;
53533;SDS011;39421;53.204;6.568;2023-04-25T02:26:52;14.45;;;2.83;;
53533;SDS011;39421;53.204;6.568;2023-04-25T02:29:20;13.50;;;2.70;;
53533;SDS011;39421;53.204;6.568;2023-04-25T02:31:46;15.47;;;2.63;;
53533;SDS011;39421;53.204;6.568;2023-04-25T02:34:13;17.70;;;2.83;;
53533;SDS011;39421;53.204;6.568;2023-04-25T02:36:39;15.48;;;3.10;;
53533;SDS011;39421;53.204;6.568;2023-04-25T02:39:05;15.48;;;2.50;;
53533;SDS011;39421;53.204;6.568;2023-04-25T02:41:31;13.10;;;2.65;;
53533;SDS011;39421;53.204;6.568;2023-04-25T02:43:57;14.88;;;2.72;;
53533;SDS011;39421;53.204;6.568;2023-04-25T02:46:24;13.27;;;2.67;;
53533;SDS011;39421;53.204;6.568;2023-04-25T02:48:50;13.80;;;2.58;;
53533;SDS011;39421;53.204;6.568;2023-04-25T02:51:16;14.88;;;2.53;;
53533;SDS011;39421;53.204;6.568;2023-04-25T02:53:42;12.37;;;2.73;;
53533;SDS011;39421;53.204;6.568;2023-04-25T02:56:08;13.40;;;2.40;;
53533;SDS011;39421;53.204;6.568;2023-04-25T02:58:34;12.55;;;2.40;;
53533;SDS011;39421;53.204;6.568;2023-04-25T03:01:00;14.48;;;2.42;;
53533;SDS011;39421;53.204;6.568;2023-04-25T03:03:27;14.68;;;2.60;;
53533;SDS011;39421;53.204;6.568;2023-04-25T03:05:53;13.38;;;2.40;;
53533;SDS011;39421;53.204;6.568;2023-04-25T03:08:19;15.27;;;2.63;;
53533;SDS011;39421;53.204;6.568;2023-04-25T03:10:45;15.05;;;2.58;;
53533;SDS011;39421;53.204;6.568;2023-04-25T03:13:11;14.13;;;2.58;;
53533;SDS011;39421;53.204;6.568;2023-04-25T03:15:38;16.00;;;2.67;;
53533;SDS011;39421;53.204;6.568;2023-04-25T03:18:05;13.50;;;2.65;;
53533;SDS011;39421;53.204;6.568;2023-04-25T03:20:31;13.13;;;2.35;;
53533;SDS011;39421;53.204;6.568;2023-04-25T03:22:57;15.35;;;2.35;;
53533;SDS011;39421;53.204;6.568;2023-04-25T03:25:23;13.03;;;2.60;;
53533;SDS011;39421;53.204;6.568;2023-04-25T03:27:49;12.18;;;2.35;;
53533;SDS011;39421;53.204;6.568;2023-04-25T03:30:15;12.82;;;2.45;;
53533;SDS011;39421;53.204;6.568;2023-04-25T03:32:41;13.00;;;2.43;;
53533;SDS011;39421;53.204;6.568;2023-04-25T03:35:08;11.35;;;2.40;;
53533;SDS011;39421;53.204;6.568;2023-04-25T03:37:34;12.77;;;2.30;;
53533;SDS011;39421;53.204;6.568;2023-04-25T03:40:00;12.48;;;2.53;;
53533;SDS011;39421;53.204;6.568;2023-04-25T03:42:26;16.30;;;2.75;;
53533;SDS011;39421;53.204;6.568;2023-04-25T03:44:52;11.68;;;2.45;;
53533;SDS011;39421;53.204;6.568;2023-04-25T03:47:18;12.20;;;2.60;;
53533;SDS011;39421;53.204;6.568;2023-04-25T03:49:44;11.25;;;2.28;;
53533;SDS011;39421;53.204;6.568;2023-04-25T03:52:11;11.45;;;2.40;;
53533;SDS011;39421;53.204;6.568;2023-04-25T03:54:37;14.10;;;2.40;;
53533;SDS011;39421;53.204;6.568;2023-04-25T03:57:03;14.85;;;2.60;;
53533;SDS011;39421;53.204;6.568;2023-04-25T03:59:29;9.85;;;2.20;;
53533;SDS011;39421;53.204;6.568;2023-04-25T04:01:55;14.53;;;2.53;;
53533;SDS011;39421;53.204;6.568;2023-04-25T04:04:21;14.23;;;2.40;;
53533;SDS011;39421;53.204;6.568;2023-04-25T04:06:47;12.00;;;2.13;;
53533;SDS011;39421;53.204;6.568;2023-04-25T04:09:13;10.80;;;2.20;;
53533;SDS011;39421;53.204;6.568;2023-04-25T04:11:40;15.13;;;2.40;;
53533;SDS011;39421;53.204;6.568;2023-04-25T04:14:06;12.63;;;2.30;;
53533;SDS011;39421;53.204;6.568;2023-04-25T04:16:33;14.55;;;2.40;;
53533;SDS011;39421;53.204;6.568;2023-04-25T04:18:59;13.60;;;2.45;;
53533;SDS011;39421;53.204;6.568;2023-04-25T04:21:25;13.02;;;2.40;;
53533;SDS011;39421;53.204;6.568;2023-04-25T04:23:52;14.27;;;2.50;;
53533;SDS011;39421;53.204;6.568;2023-04-25T04:26:19;12.52;;;2.17;;
53533;SDS011;39421;53.204;6.568;2023-04-25T04:28:48;12.95;;;2.50;;
53533;SDS011;39421;53.204;6.568;2023-04-25T04:31:15;13.38;;;2.53;;
53533;SDS011;39421;53.204;6.568;2023-04-25T04:33:44;14.70;;;2.50;;
53533;SDS011;39421;53.204;6.568;2023-04-25T04:36:11;13.10;;;3.10;;
53533;SDS011;39421;53.204;6.568;2023-04-25T04:38:38;12.05;;;2.78;;
53533;SDS011;39421;53.204;6.568;2023-04-25T04:41:05;14.73;;;2.65;;
53533;SDS011;39421;53.204;6.568;2023-04-25T04:43:31;13.57;;;2.80;;
53533;SDS011;39421;53.204;6.568;2023-04-25T04:46:00;14.07;;;3.10;;
53533;SDS011;39421;53.204;6.568;2023-04-25T04:48:26;12.77;;;2.85;;
53533;SDS011;39421;53.204;6.568;2023-04-25T04:50:53;13.40;;;2.58;;
53533;SDS011;39421;53.204;6.568;2023-04-25T04:53:19;13.68;;;2.40;;
53533;SDS011;39421;53.204;6.568;2023-04-25T04:55:45;14.90;;;2.50;;
53533;SDS011;39421;53.204;6.568;2023-04-25T04:58:11;11.68;;;2.30;;
53533;SDS011;39421;53.204;6.568;2023-04-25T05:00:37;12.97;;;2.60;;
53533;SDS011;39421;53.204;6.568;2023-04-25T05:03:03;14.52;;;2.80;;
53533;SDS011;39421;53.204;6.568;2023-04-25T05:05:30;13.07;;;2.40;;
53533;SDS011;39421;53.204;6.568;2023-04-25T05:07:56;12.10;;;2.22;;
53533;SDS011;39421;53.204;6.568;2023-04-25T05:10:22;12.30;;;2.17;;
53533;SDS011;39421;53.204;6.568;2023-04-25T05:12:49;11.30;;;2.10;;
53533;SDS011;39421;53.204;6.568;2023-04-25T05:15:15;9.93;;;2.10;;
53533;SDS011;39421;53.204;6.568;2023-04-25T05:17:41;11.35;;;2.00;;
53533;SDS011;39421;53.204;6.568;2023-04-25T05:20:07;10.07;;;2.17;;
53533;SDS011;39421;53.204;6.568;2023-04-25T05:22:34;11.30;;;2.10;;
53533;SDS011;39421;53.204;6.568;2023-04-25T05:25:01;7.07;;;1.70;;
53533;SDS011;39421;53.204;6.568;2023-04-25T05:27:28;9.52;;;1.90;;
53533;SDS011;39421;53.204;6.568;2023-04-25T05:29:54;7.00;;;1.50;;
53533;SDS011;39421;53.204;6.568;2023-04-25T05:32:20;7.87;;;1.67;;
53533;SDS011;39421;53.204;6.568;2023-04-25T05:34:47;11.00;;;2.35;;
53533;SDS011;39421;53.204;6.568;2023-04-25T05:37:13;8.00;;;1.83;;
53533;SDS011;39421;53.204;6.568;2023-04-25T05:39:39;8.48;;;1.80;;
53533;SDS011;39421;53.204;6.568;2023-04-25T05:42:05;8.15;;;1.70;;
53533;SDS011;39421;53.204;6.568;2023-04-25T05:44:31;7.50;;;1.73;;
53533;SDS011;39421;53.204;6.568;2023-04-25T05:46:57;10.57;;;1.90;;
53533;SDS011;39421;53.204;6.568;2023-04-25T05:49:24;10.63;;;1.90;;
53533;SDS011;39421;53.204;6.568;2023-04-25T05:51:50;7.72;;;1.67;;
53533;SDS011;39421;53.204;6.568;2023-04-25T05:54:16;7.95;;;1.60;;
53533;SDS011;39421;53.204;6.568;2023-04-25T05:56:42;8.55;;;2.42;;
53533;SDS011;39421;53.204;6.568;2023-04-25T05:59:08;9.07;;;2.00;;
53533;SDS011;39421;53.204;6.568;2023-04-25T06:01:34;9.95;;;1.83;;
53533;SDS011;39421;53.204;6.568;2023-04-25T06:04:01;9.57;;;1.90;;
53533;SDS011;39421;53.204;6.568;2023-04-25T06:06:27;8.77;;;2.10;;
53533;SDS011;39421;53.204;6.568;2023-04-25T06:08:53;9.13;;;1.80;;
53533;SDS011;39421;53.204;6.568;2023-04-25T06:11:20;7.30;;;1.80;;
53533;SDS011;39421;53.204;6.568;2023-04-25T06:13:46;9.90;;;1.85;;
53533;SDS011;39421;53.204;6.568;2023-04-25T06:16:12;8.80;;;1.70;;
53533;SDS011;39421;53.204;6.568;2023-04-25T06:18:38;9.52;;;2.03;;
53533;SDS011;39421;53.204;6.568;2023-04-25T06:21:05;7.93;;;1.75;;
53533;SDS011;39421;53.204;6.568;2023-04-25T06:23:31;9.10;;;1.70;;
53533;SDS011;39421;53.204;6.568;2023-04-25T06:25:57;9.15;;;1.90;;
53533;SDS011;39421;53.204;6.568;2023-04-25T06:28:23;10.30;;;2.03;;
53533;SDS011;39421;53.204;6.568;2023-04-25T06:30:50;10.70;;;1.90;;
53533;SDS011;39421;53.204;6.568;2023-04-25T06:33:16;9.52;;;1.77;;
53533;SDS011;39421;53.204;6.568;2023-04-25T06:35:42;9.13;;;1.77;;
53533;SDS011;39421;53.204;6.568;2023-04-25T06:38:08;9.23;;;2.00;;
53533;SDS011;39421;53.204;6.568;2023-04-25T06:40:34;11.30;;;2.33;;
53533;SDS011;39421;53.204;6.568;2023-04-25T06:43:01;10.98;;;2.03;;
53533;SDS011;39421;53.204;6.568;2023-04-25T06:45:27;10.95;;;2.05;;
53533;SDS011;39421;53.204;6.568;2023-04-25T06:47:53;11.32;;;1.75;;
53533;SDS011;39421;53.204;6.568;2023-04-25T06:50:19;9.43;;;1.83;;
53533;SDS011;39421;53.204;6.568;2023-04-25T06:52:45;12.68;;;2.00;;
53533;SDS011;39421;53.204;6.568;2023-04-25T06:55:11;11.50;;;2.03;;
53533;SDS011;39421;53.204;6.568;2023-04-25T06:57:37;10.43;;;2.10;;
53533;SDS011;39421;53.204;6.568;2023-04-25T07:00:04;8.37;;;2.03;;
53533;SDS011;39421;53.204;6.568;2023-04-25T07:02:33;11.68;;;1.88;;
53533;SDS011;39421;53.204;6.568;2023-04-25T07:04:59;10.02;;;1.63;;
53533;SDS011;39421;53.204;6.568;2023-04-25T07:07:26;11.32;;;1.60;;
53533;SDS011;39421;53.204;6.568;2023-04-25T07:09:52;8.27;;;1.50;;
53533;SDS011;39421;53.204;6.568;2023-04-25T07:12:18;10.95;;;1.90;;
53533;SDS011;39421;53.204;6.568;2023-04-25T07:14:44;8.85;;;1.77;;
53533;SDS011;39421;53.204;6.568;2023-04-25T07:17:11;9.98;;;1.88;;
53533;SDS011;39421;53.204;6.568;2023-04-25T07:19:37;7.93;;;1.52;;
53533;SDS011;39421;53.204;6.568;2023-04-25T07:22:05;10.38;;;1.85;;
53533;SDS011;39421;53.204;6.568;2023-04-25T07:24:31;7.07;;;1.60;;
53533;SDS011;39421;53.204;6.568;2023-04-25T07:26:58;6.70;;;1.50;;
53533;SDS011;39421;53.204;6.568;2023-04-25T07:29:24;7.57;;;1.38;;
53533;SDS011;39421;53.204;6.568;2023-04-25T07:31:50;7.63;;;1.40;;
53533;SDS011;39421;53.204;6.568;2023-04-25T07:34:16;8.85;;;1.60;;
53533;SDS011;39421;53.204;6.568;2023-04-25T07:36:43;9.13;;;1.75;;
53533;SDS011;39421;53.204;6.568;2023-04-25T07:39:10;8.15;;;1.50;;
53533;SDS011;39421;53.204;6.568;2023-04-25T07:41:36;8.68;;;1.38;;
53533;SDS011;39421;53.204;6.568;2023-04-25T07:44:02;7.45;;;1.50;;
53533;SDS011;39421;53.204;6.568;2023-04-25T07:46:28;8.85;;;1.50;;
53533;SDS011;39421;53.204;6.568;2023-04-25T07:48:57;10.60;;;1.55;;
53533;SDS011;39421;53.204;6.568;2023-04-25T07:51:23;8.82;;;1.23;;
53533;SDS011;39421;53.204;6.568;2023-04-25T07:53:49;6.35;;;1.30;;
53533;SDS011;39421;53.204;6.568;2023-04-25T07:56:15;8.30;;;1.23;;
53533;SDS011;39421;53.204;6.568;2023-04-25T07:58:41;7.72;;;1.35;;
53533;SDS011;39421;53.204;6.568;2023-04-25T08:01:08;9.48;;;1.55;;
53533;SDS011;39421;53.204;6.568;2023-04-25T08:03:34;7.68;;;1.27;;
53533;SDS011;39421;53.204;6.568;2023-04-25T08:06:00;7.00;;;1.42;;
53533;SDS011;39421;53.204;6.568;2023-04-25T08:08:26;9.48;;;1.58;;
53533;SDS011;39421;53.204;6.568;2023-04-25T08:10:52;7.28;;;1.10;;
53533;SDS011;39421;53.204;6.568;2023-04-25T08:13:18;5.80;;;1.10;;
53533;SDS011;39421;53.204;6.568;2023-04-25T08:15:45;5.22;;;1.00;;
53533;SDS011;39421;53.204;6.568;2023-04-25T08:18:11;5.47;;;1.10;;
53533;SDS011;39421;53.204;6.568;2023-04-25T08:20:37;4.60;;;1.00;;
53533;SDS011;39421;53.204;6.568;2023-04-25T08:23:03;6.68;;;1.20;;
53533;SDS011;39421;53.204;6.568;2023-04-25T08:25:29;6.07;;;1.10;;
53533;SDS011;39421;53.204;6.568;2023-04-25T08:27:55;7.45;;;1.40;;
53533;SDS011;39421;53.204;6.568;2023-04-25T08:30:22;5.30;;;1.00;;
53533;SDS011;39421;53.204;6.568;2023-04-25T08:32:48;5.43;;;1.27;;
53533;SDS011;39421;53.204;6.568;2023-04-25T08:35:14;3.83;;;1.00;;
53533;SDS011;39421;53.204;6.568;2023-04-25T08:37:42;4.72;;;1.17;;
53533;SDS011;39421;53.204;6.568;2023-04-25T08:40:09;5.90;;;1.23;;
53533;SDS011;39421;53.204;6.568;2023-04-25T08:42:37;5.10;;;1.08;;
53533;SDS011;39421;53.204;6.568;2023-04-25T08:45:03;5.13;;;1.20;;
53533;SDS011;39421;53.204;6.568;2023-04-25T08:47:30;4.45;;;1.00;;
53533;SDS011;39421;53.204;6.568;2023-04-25T08:49:59;5.03;;;1.30;;
53533;SDS011;39421;53.204;6.568;2023-04-25T08:52:27;7.32;;;1.25;;
53533;SDS011;39421;53.204;6.568;2023-04-25T08:54:53;6.93;;;1.25;;
53533;SDS011;39421;53.204;6.568;2023-04-25T08:57:20;5.75;;;1.30;;
53533;SDS011;39421;53.204;6.568;2023-04-25T08:59:47;7.90;;;1.58;;
53533;SDS011;39421;53.204;6.568;2023-04-25T09:02:13;6.88;;;1.30;;
53533;SDS011;39421;53.204;6.568;2023-04-25T09:04:44;6.60;;;1.40;;
53533;SDS011;39421;53.204;6.568;2023-04-25T09:07:10;7.90;;;1.40;;
53533;SDS011;39421;53.204;6.568;2023-04-25T09:09:37;7.00;;;1.40;;
53533;SDS011;39421;53.204;6.568;2023-04-25T09:12:03;7.50;;;1.48;;
53533;SDS011;39421;53.204;6.568;2023-04-25T09:14:29;6.40;;;1.50;;
53533;SDS011;39421;53.204;6.568;2023-04-25T09:19:22;7.53;;;1.60;;
53533;SDS011;39421;53.204;6.568;2023-04-25T09:21:48;8.52;;;1.45;;
53533;SDS011;39421;53.204;6.568;2023-04-25T09:24:15;9.32;;;1.75;;
53533;SDS011;39421;53.204;6.568;2023-04-25T09:26:41;8.55;;;1.70;;
53533;SDS011;39421;53.204;6.568;2023-04-25T09:29:08;7.75;;;1.77;;
53533;SDS011;39421;53.204;6.568;2023-04-25T09:31:35;11.02;;;1.70;;
53533;SDS011;39421;53.204;6.568;2023-04-25T09:34:02;8.40;;;1.50;;
53533;SDS011;39421;53.204;6.568;2023-04-25T09:36:29;6.88;;;1.50;;
53533;SDS011;39421;53.204;6.568;2023-04-25T09:38:55;8.68;;;1.70;;
53533;SDS011;39421;53.204;6.568;2023-04-25T09:41:24;8.15;;;1.73;;
53533;SDS011;39421;53.204;6.568;2023-04-25T09:43:51;8.05;;;1.80;;
53533;SDS011;39421;53.204;6.568;2023-04-25T09:46:17;7.65;;;1.30;;
53533;SDS011;39421;53.204;6.568;2023-04-25T09:48:52;8.60;;;1.50;;
53533;SDS011;39421;53.204;6.568;2023-04-25T09:51:18;7.22;;;1.48;;
53533;SDS011;39421;53.204;6.568;2023-04-25T09:53:46;8.15;;;1.60;;
53533;SDS011;39421;53.204;6.568;2023-04-25T09:56:15;6.75;;;1.55;;
53533;SDS011;39421;53.204;6.568;2023-04-25T09:58:42;9.85;;;1.65;;
53533;SDS011;39421;53.204;6.568;2023-04-25T10:01:09;8.52;;;1.73;;
53533;SDS011;39421;53.204;6.568;2023-04-25T10:03:39;11.95;;;1.88;;
53533;SDS011;39421;53.204;6.568;2023-04-25T10:06:14;11.00;;;1.92;;
53533;SDS011;39421;53.204;6.568;2023-04-25T10:08:41;10.98;;;2.05;;
53533;SDS011;39421;53.204;6.568;2023-04-25T10:11:08;10.80;;;2.00;;
53533;SDS011;39421;53.204;6.568;2023-04-25T10:13:35;8.90;;;1.70;;
53533;SDS011;39421;53.204;6.568;2023-04-25T10:16:02;8.07;;;1.65;;
53533;SDS011;39421;53.204;6.568;2023-04-25T10:18:29;10.90;;;1.70;;
53533;SDS011;39421;53.204;6.568;2023-04-25T10:21:01;8.25;;;1.65;;
53533;SDS011;39421;53.204;6.568;2023-04-25T10:23:27;7.80;;;1.58;;
53533;SDS011;39421;53.204;6.568;2023-04-25T10:25:55;7.68;;;1.80;;
53533;SDS011;39421;53.204;6.568;2023-04-25T10:28:21;9.27;;;1.80;;
53533;SDS011;39421;53.204;6.568;2023-04-25T10:33:32;8.85;;;1.60;;
53533;SDS011;39421;53.204;6.568;2023-04-25T10:36:09;12.63;;;2.27;;
53533;SDS011;39421;53.204;6.568;2023-04-25T10:38:35;9.80;;;1.70;;
53533;SDS011;39421;53.204;6.568;2023-04-25T10:41:06;11.65;;;1.95;;
53533;SDS011;39421;53.204;6.568;2023-04-25T10:43:34;10.68;;;1.70;;
53533;SDS011;39421;53.204;6.568;2023-04-25T10:46:14;22.75;;;2.63;;
53533;SDS011;39421;53.204;6.568;2023-04-25T10:48:51;10.70;;;1.83;;
53533;SDS011;39421;53.204;6.568;2023-04-25T10:51:21;7.63;;;1.60;;
53533;SDS011;39421;53.204;6.568;2023-04-25T10:54:03;9.43;;;1.60;;
53533;SDS011;39421;53.204;6.568;2023-04-25T10:56:35;7.35;;;1.60;;
53533;SDS011;39421;53.204;6.568;2023-04-25T11:01:35;8.35;;;1.55;;
53533;SDS011;39421;53.204;6.568;2023-04-25T11:04:01;8.45;;;1.80;;
53533;SDS011;39421;53.204;6.568;2023-04-25T11:06:35;7.90;;;1.70;;
53533;SDS011;39421;53.204;6.568;2023-04-25T11:09:03;7.00;;;1.65;;
53533;SDS011;39421;53.204;6.568;2023-04-25T11:11:38;8.98;;;1.58;;
53533;SDS011;39421;53.204;6.568;2023-04-25T11:14:04;8.00;;;1.40;;
53533;SDS011;39421;53.204;6.568;2023-04-25T11:16:30;7.57;;;1.40;;
53533;SDS011;39421;53.204;6.568;2023-04-25T11:18:57;7.55;;;1.60;;
53533;SDS011;39421;53.204;6.568;2023-04-25T11:21:27;10.73;;;1.40;;
53533;SDS011;39421;53.204;6.568;2023-04-25T11:23:53;7.47;;;1.75;;
53533;SDS011;39421;53.204;6.568;2023-04-25T11:26:20;8.20;;;1.40;;
53533;SDS011;39421;53.204;6.568;2023-04-25T11:28:46;8.90;;;1.80;;
53533;SDS011;39421;53.204;6.568;2023-04-25T11:31:12;6.95;;;1.40;;
53533;SDS011;39421;53.204;6.568;2023-04-25T11:33:38;7.97;;;1.65;;
53533;SDS011;39421;53.204;6.568;2023-04-25T11:36:06;7.60;;;1.38;;
53533;SDS011;39421;53.204;6.568;2023-04-25T11:38:32;8.43;;;1.57;;
53533;SDS011;39421;53.204;6.568;2023-04-25T11:40:58;8.73;;;1.88;;
53533;SDS011;39421;53.204;6.568;2023-04-25T11:43:25;8.23;;;1.65;;
53533;SDS011;39421;53.204;6.568;2023-04-25T11:45:51;8.25;;;1.77;;
53533;SDS011;39421;53.204;6.568;2023-04-25T11:48:18;7.18;;;1.42;;
53533;SDS011;39421;53.204;6.568;2023-04-25T11:50:45;8.95;;;1.58;;
53533;SDS011;39421;53.204;6.568;2023-04-25T11:53:11;8.45;;;1.67;;
53533;SDS011;39421;53.204;6.568;2023-04-25T11:55:38;10.82;;;2.00;;
53533;SDS011;39421;53.204;6.568;2023-04-25T11:58:05;10.88;;;1.83;;
53533;SDS011;39421;53.204;6.568;2023-04-25T12:00:32;10.50;;;1.45;;
53533;SDS011;39421;53.204;6.568;2023-04-25T12:02:58;9.47;;;1.70;;
53533;SDS011;39421;53.204;6.568;2023-04-25T12:05:25;9.95;;;1.58;;
53533;SDS011;39421;53.204;6.568;2023-04-25T12:07:52;7.73;;;1.30;;
53533;SDS011;39421;53.204;6.568;2023-04-25T12:10:18;13.55;;;1.90;;
53533;SDS011;39421;53.204;6.568;2023-04-25T12:12:45;12.05;;;1.60;;
53533;SDS011;39421;53.204;6.568;2023-04-25T12:15:15;10.88;;;1.95;;
53533;SDS011;39421;53.204;6.568;2023-04-25T12:17:48;9.63;;;1.70;;
53533;SDS011;39421;53.204;6.568;2023-04-25T12:20:19;8.60;;;1.70;;
53533;SDS011;39421;53.204;6.568;2023-04-25T12:22:46;8.35;;;1.58;;
53533;SDS011;39421;53.204;6.568;2023-04-25T12:25:33;8.23;;;1.40;;
53533;SDS011;39421;53.204;6.568;2023-04-25T12:28:15;9.10;;;1.42;;
53533;SDS011;39421;53.204;6.568;2023-04-25T12:33:20;12.75;;;1.75;;
53533;SDS011;39421;53.204;6.568;2023-04-25T12:35:46;8.47;;;1.50;;
53533;SDS011;39421;53.204;6.568;2023-04-25T12:38:26;7.93;;;1.45;;
53533;SDS011;39421;53.204;6.568;2023-04-25T12:40:52;11.77;;;1.52;;
53533;SDS011;39421;53.204;6.568;2023-04-25T12:43:19;10.25;;;1.63;;
53533;SDS011;39421;53.204;6.568;2023-04-25T12:45:49;7.97;;;1.42;;
53533;SDS011;39421;53.204;6.568;2023-04-25T12:48:19;8.00;;;1.70;;
53533;SDS011;39421;53.204;6.568;2023-04-25T12:50:45;13.68;;;1.55;;
53533;SDS011;39421;53.204;6.568;2023-04-25T12:53:21;7.25;;;1.50;;
53533;SDS011;39421;53.204;6.568;2023-04-25T12:55:47;7.40;;;1.35;;
53533;SDS011;39421;53.204;6.568;2023-04-25T12:58:14;5.97;;;1.20;;
53533;SDS011;39421;53.204;6.568;2023-04-25T13:00:40;6.23;;;1.10;;
53533;SDS011;39421;53.204;6.568;2023-04-25T13:03:07;10.30;;;1.65;;
53533;SDS011;39421;53.204;6.568;2023-04-25T13:05:34;11.90;;;1.60;;
53533;SDS011;39421;53.204;6.568;2023-04-25T13:08:00;10.68;;;1.60;;
53533;SDS011;39421;53.204;6.568;2023-04-25T13:10:26;16.27;;;2.20;;
53533;SDS011;39421;53.204;6.568;2023-04-25T13:12:52;8.98;;;1.70;;
53533;SDS011;39421;53.204;6.568;2023-04-25T13:15:19;11.67;;;1.70;;
53533;SDS011;39421;53.204;6.568;2023-04-25T13:17:45;7.95;;;1.60;;
53533;SDS011;39421;53.204;6.568;2023-04-25T13:20:11;8.37;;;1.60;;
53533;SDS011;39421;53.204;6.568;2023-04-25T13:22:39;8.07;;;1.67;;
53533;SDS011;39421;53.204;6.568;2023-04-25T13:25:06;18.02;;;2.63;;
53533;SDS011;39421;53.204;6.568;2023-04-25T13:27:33;21.00;;;2.40;;
53533;SDS011;39421;53.204;6.568;2023-04-25T13:30:01;8.93;;;1.63;;
53533;SDS011;39421;53.204;6.568;2023-04-25T13:32:32;14.93;;;2.10;;
53533;SDS011;39421;53.204;6.568;2023-04-25T13:34:58;11.40;;;1.80;;
53533;SDS011;39421;53.204;6.568;2023-04-25T13:37:25;11.35;;;2.28;;
53533;SDS011;39421;53.204;6.568;2023-04-25T13:39:51;10.55;;;2.10;;
53533;SDS011;39421;53.204;6.568;2023-04-25T13:42:18;14.73;;;2.03;;
53533;SDS011;39421;53.204;6.568;2023-04-25T13:44:44;10.98;;;2.13;;
53533;SDS011;39421;53.204;6.568;2023-04-25T13:47:11;9.55;;;1.63;;
53533;SDS011;39421;53.204;6.568;2023-04-25T13:49:37;10.00;;;2.13;;
53533;SDS011;39421;53.204;6.568;2023-04-25T13:52:03;10.27;;;1.47;;
53533;SDS011;39421;53.204;6.568;2023-04-25T13:54:29;7.63;;;1.50;;
53533;SDS011;39421;53.204;6.568;2023-04-25T13:56:55;9.48;;;1.50;;
53533;SDS011;39421;53.204;6.568;2023-04-25T13:59:24;7.78;;;1.42;;
53533;SDS011;39421;53.204;6.568;2023-04-25T14:01:51;13.50;;;1.80;;
53533;SDS011;39421;53.204;6.568;2023-04-25T14:04:17;7.43;;;1.63;;
53533;SDS011;39421;53.204;6.568;2023-04-25T14:06:43;12.80;;;1.80;;
53533;SDS011;39421;53.204;6.568;2023-04-25T14:09:09;8.27;;;1.65;;
53533;SDS011;39421;53.204;6.568;2023-04-25T14:11:38;10.97;;;1.80;;
53533;SDS011;39421;53.204;6.568;2023-04-25T14:14:04;8.73;;;1.67;;
53533;SDS011;39421;53.204;6.568;2023-04-25T14:16:30;12.55;;;2.00;;
53533;SDS011;39421;53.204;6.568;2023-04-25T14:19:00;12.55;;;2.03;;
53533;SDS011;39421;53.204;6.568;2023-04-25T14:21:26;10.85;;;1.92;;
53533;SDS011;39421;53.204;6.568;2023-04-25T14:23:53;8.18;;;1.80;;
53533;SDS011;39421;53.204;6.568;2023-04-25T14:26:19;9.00;;;1.75;;
53533;SDS011;39421;53.204;6.568;2023-04-25T14:28:46;7.97;;;1.40;;
53533;SDS011;39421;53.204;6.568;2023-04-25T14:31:15;8.87;;;1.50;;
53533;SDS011;39421;53.204;6.568;2023-04-25T14:33:41;20.42;;;2.15;;
53533;SDS011;39421;53.204;6.568;2023-04-25T14:36:08;9.73;;;1.60;;
53533;SDS011;39421;53.204;6.568;2023-04-25T14:38:35;8.70;;;1.67;;
53533;SDS011;39421;53.204;6.568;2023-04-25T14:41:01;6.60;;;1.23;;
53533;SDS011;39421;53.204;6.568;2023-04-25T14:43:27;10.48;;;1.92;;
53533;SDS011;39421;53.204;6.568;2023-04-25T14:45:53;9.45;;;1.63;;
53533;SDS011;39421;53.204;6.568;2023-04-25T14:48:20;8.25;;;1.50;;